KBFF/BFF METAR and TAF weather

Enter ICAO airport designator
Station Type Date Time Source
KBFF METAR 2021/03/02 02:53 UTC NOAA

KBFF 020253Z AUTO 21005KT 10SM CLR 05/M12 A3013 RMK AO2 SLP219 T00501117 58006


Station Type Date Time Source
KBFF Decoded METAR 2021/03/02 02:53 UTC NOAA

SCOTTSBLUFF HEILIG FIELD, NE, United States (KBFF) 41-52N 103-36W 1203M
Mar 01, 2021 - 09:53 PM EST / 2021.03.02 0253 UTC
Wind: from the SSW (210 degrees) at 6 MPH (5 KT):0
Visibility: 10 mile(s):0
Sky conditions: clear
Temperature: 41.0 F (5.0 C)
Dew Point: 10.9 F (-11.7 C)
Relative Humidity: 28%
Pressure (altimeter): 30.13 in. Hg (1020 hPa)
Pressure tendency: 0.02 inches (0.6 hPa) lower than three hours ago
ob: KBFF 020253Z AUTO 21005KT 10SM CLR 05/M12 A3013 RMK AO2 SLP219 T00501117 58006
cycle: 3

Station Type Date Time Source
KBFF TAF 2021/03/01 18:22 UTC NOAA

TAF KBFF 011720Z 0118/0218 27011KT P6SM SKC
FM011900 25010KT P6SM SKC
FM020000 17007KT P6SM SKC
FM020600 14005KT P6SM SKC

Example: see airport list